createdAt,value
2022-12-27T00:01:31.797Z,1.92
2022-12-27T00:03:58.310Z,2.50
2022-12-27T00:06:26.692Z,1.80
2022-12-27T00:08:53.302Z,1.85
2022-12-27T00:11:23.466Z,1.80
2022-12-27T00:13:50.384Z,1.88
2022-12-27T00:16:21.055Z,1.70
2022-12-27T00:18:49.423Z,1.70
2022-12-27T00:21:17.400Z,1.77
2022-12-27T00:23:48.656Z,2.22
2022-12-27T00:26:21.318Z,1.92
2022-12-27T00:28:47.780Z,2.22
2022-12-27T00:31:14.970Z,2.43
2022-12-27T00:33:43.079Z,1.95
2022-12-27T00:36:13.796Z,2.28
2022-12-27T00:38:40.702Z,2.10
2022-12-27T00:41:07.530Z,2.10
2022-12-27T00:43:34.990Z,2.00
2022-12-27T00:46:02.144Z,1.80
2022-12-27T00:48:28.637Z,2.78
2022-12-27T00:51:00.714Z,2.15
2022-12-27T00:53:28.957Z,2.17
2022-12-27T00:55:56.161Z,2.60
2022-12-27T00:58:22.678Z,1.77
2022-12-27T01:00:50.105Z,2.13
2022-12-27T01:03:17.856Z,2.10
2022-12-27T01:05:44.359Z,1.80
2022-12-27T01:08:11.394Z,2.17
2022-12-27T01:10:40.576Z,1.67
2022-12-27T01:13:07.763Z,1.65
2022-12-27T01:15:34.272Z,2.00
2022-12-27T01:18:00.720Z,2.10
2022-12-27T01:20:27.142Z,2.10
2022-12-27T01:22:54.538Z,2.40
2022-12-27T01:25:21.090Z,2.75
2022-12-27T01:27:47.517Z,1.50
2022-12-27T01:30:13.971Z,1.80
2022-12-27T01:32:40.378Z,1.60
2022-12-27T01:35:07.073Z,1.98
2022-12-27T01:37:33.527Z,1.88
2022-12-27T01:40:00.043Z,1.80
2022-12-27T01:42:46.490Z,2.08
2022-12-27T01:45:34.973Z,1.23
2022-12-27T01:48:14.313Z,1.73
2022-12-27T01:50:45.361Z,2.10
2022-12-27T01:53:32.154Z,1.83
2022-12-27T01:56:09.449Z,2.20
2022-12-27T01:58:46.627Z,2.17
2022-12-27T02:01:17.609Z,2.47
2022-12-27T02:03:48.346Z,1.92
2022-12-27T02:06:16.143Z,1.90
2022-12-27T02:08:51.970Z,1.63
2022-12-27T02:11:41.895Z,1.00
2022-12-27T02:14:09.942Z,1.13
2022-12-27T02:16:36.435Z,1.40
2022-12-27T02:19:06.329Z,1.15
2022-12-27T02:21:45.243Z,1.75
2022-12-27T02:24:20.376Z,1.00
2022-12-27T02:26:51.992Z,2.15
2022-12-27T02:29:22.467Z,1.95
2022-12-27T02:32:04.248Z,1.80
2022-12-27T02:34:39.768Z,1.85
2022-12-27T02:37:11.272Z,2.17
2022-12-27T02:39:43.391Z,2.30
2022-12-27T02:42:30.254Z,1.88
2022-12-27T02:45:15.389Z,2.10
2022-12-27T02:48:02.738Z,2.13
2022-12-27T02:51:17.285Z,1.33
2022-12-27T02:53:58.611Z,1.73
2022-12-27T02:56:57.702Z,1.85
2022-12-27T02:59:59.089Z,2.85
2022-12-27T03:03:04.871Z,2.90
2022-12-27T03:05:46.251Z,2.50
2022-12-27T03:08:30.293Z,2.65
2022-12-27T03:11:19.112Z,2.10
2022-12-27T03:14:13.069Z,2.83
2022-12-27T03:16:55.662Z,2.40
2022-12-27T03:19:49.424Z,2.30
2022-12-27T03:22:37.159Z,2.15
2022-12-27T03:25:23.126Z,2.97
2022-12-27T03:28:11.975Z,1.85
2022-12-27T03:30:59.029Z,2.13
2022-12-27T03:33:27.845Z,1.77
2022-12-27T03:36:15.389Z,1.90
2022-12-27T03:38:56.800Z,1.85
2022-12-27T03:41:48.356Z,1.92
2022-12-27T03:44:25.137Z,2.80
2022-12-27T03:46:58.138Z,1.90
2022-12-27T03:49:33.013Z,1.75
2022-12-27T03:52:36.231Z,2.20
2022-12-27T03:55:03.045Z,1.58
2022-12-27T03:57:29.761Z,1.30
2022-12-27T03:59:56.315Z,1.77
2022-12-27T04:02:23.109Z,2.00
2022-12-27T04:04:50.095Z,2.28
2022-12-27T04:07:16.692Z,2.00
2022-12-27T04:10:01.937Z,2.08
2022-12-27T04:12:46.889Z,1.40
2022-12-27T04:15:32.115Z,1.90
2022-12-27T04:18:17.017Z,1.80
2022-12-27T04:21:01.706Z,1.98
2022-12-27T04:23:46.589Z,1.58
2022-12-27T04:26:31.542Z,1.77
2022-12-27T04:29:16.357Z,1.70
2022-12-27T04:32:01.237Z,1.90
2022-12-27T04:34:42.849Z,2.30
2022-12-27T04:37:19.733Z,2.13
2022-12-27T04:40:10.178Z,1.67
2022-12-27T04:42:54.905Z,1.90
2022-12-27T04:45:40.343Z,2.28
2022-12-27T04:48:31.302Z,1.30
2022-12-27T04:51:16.772Z,2.22
2022-12-27T04:54:01.542Z,2.10
2022-12-27T04:56:27.948Z,1.73
2022-12-27T04:59:12.675Z,1.52
2022-12-27T05:01:58.136Z,1.50
2022-12-27T05:04:25.448Z,2.00
2022-12-27T05:06:51.965Z,2.27
2022-12-27T05:09:37.113Z,1.60
2022-12-27T05:12:22.572Z,1.63
2022-12-27T05:14:49.001Z,1.80
2022-12-27T05:17:15.493Z,1.80
2022-12-27T05:19:41.924Z,2.07
2022-12-27T05:22:26.706Z,1.50
2022-12-27T05:25:11.559Z,2.20
2022-12-27T05:27:37.970Z,1.75
2022-12-27T05:30:04.818Z,1.73
2022-12-27T05:32:31.222Z,1.77
2022-12-27T05:34:57.641Z,1.48
2022-12-27T05:37:24.026Z,1.83
2022-12-27T05:39:50.457Z,1.95
2022-12-27T05:42:16.904Z,2.08
2022-12-27T05:44:43.322Z,2.70
2022-12-27T05:47:09.816Z,1.23
2022-12-27T05:49:36.266Z,1.40
2022-12-27T05:52:02.749Z,1.63
2022-12-27T05:54:29.178Z,1.50
2022-12-27T05:56:55.553Z,1.60
2022-12-27T05:59:21.973Z,1.30
2022-12-27T06:01:48.535Z,1.10
2022-12-27T06:04:15.009Z,1.75
2022-12-27T06:06:41.395Z,1.70
2022-12-27T06:09:07.879Z,1.63
2022-12-27T06:11:34.287Z,1.90
2022-12-27T06:14:00.677Z,1.63
2022-12-27T06:16:27.248Z,1.85
2022-12-27T06:18:53.740Z,1.77
2022-12-27T06:21:21.347Z,1.87
2022-12-27T06:23:48.571Z,2.88
2022-12-27T06:26:18.103Z,1.97
2022-12-27T06:28:44.508Z,1.88
2022-12-27T06:31:11.584Z,2.28
2022-12-27T06:33:38.332Z,2.28
2022-12-27T06:36:10.113Z,1.77
2022-12-27T06:38:36.639Z,2.07
2022-12-27T06:41:05.004Z,2.88
2022-12-27T06:43:31.589Z,2.15
2022-12-27T06:46:00.010Z,2.38
2022-12-27T06:48:27.018Z,1.92
2022-12-27T06:50:54.108Z,1.93
2022-12-27T06:53:21.308Z,2.03
2022-12-27T06:55:48.322Z,1.83
2022-12-27T06:58:15.053Z,2.30
2022-12-27T07:00:42.412Z,1.90
2022-12-27T07:03:08.987Z,1.90
2022-12-27T07:05:36.556Z,2.70
2022-12-27T07:08:03.224Z,2.40
2022-12-27T07:10:29.833Z,1.83
2022-12-27T07:12:56.939Z,2.10
2022-12-27T07:15:24.007Z,2.07
2022-12-27T07:17:50.654Z,2.63
2022-12-27T07:20:17.220Z,2.17
2022-12-27T07:22:43.609Z,2.10
2022-12-27T07:25:10.051Z,2.40
2022-12-27T07:27:37.414Z,1.77
2022-12-27T07:30:05.142Z,2.95
2022-12-27T07:32:31.865Z,2.05
2022-12-27T07:34:58.315Z,2.10
2022-12-27T07:37:24.720Z,2.10
2022-12-27T07:39:51.196Z,2.53
2022-12-27T07:42:17.674Z,2.22
2022-12-27T07:44:44.149Z,2.08
2022-12-27T07:47:10.588Z,2.33
2022-12-27T07:49:37.012Z,2.47
2022-12-27T07:52:03.518Z,2.63
2022-12-27T07:54:30.043Z,2.13
2022-12-27T07:56:56.444Z,2.60
2022-12-27T07:59:22.914Z,2.00
2022-12-27T08:02:04.430Z,2.35
2022-12-27T08:04:32.778Z,3.10
2022-12-27T08:07:19.640Z,2.53
2022-12-27T08:09:47.457Z,2.63
2022-12-27T08:12:15.026Z,2.33
2022-12-27T08:14:41.961Z,2.40
2022-12-27T08:17:21.101Z,3.43
2022-12-27T08:19:48.409Z,2.35
2022-12-27T08:22:15.345Z,3.10
2022-12-27T08:24:42.135Z,2.83
2022-12-27T08:27:08.702Z,2.17
2022-12-27T08:29:35.294Z,2.57
2022-12-27T08:32:01.921Z,2.60
2022-12-27T08:34:28.367Z,2.42
2022-12-27T08:36:56.152Z,3.03
2022-12-27T08:39:23.223Z,2.83
2022-12-27T08:41:49.741Z,2.67
2022-12-27T08:44:16.180Z,2.85
2022-12-27T08:46:42.616Z,3.40
2022-12-27T08:49:09.059Z,3.08
2022-12-27T08:51:40.889Z,3.40
2022-12-27T08:54:08.129Z,2.70
2022-12-27T08:56:34.555Z,2.60
2022-12-27T08:59:01.266Z,2.78
2022-12-27T09:01:27.877Z,2.65
2022-12-27T09:03:54.445Z,2.95
2022-12-27T09:06:22.981Z,3.27
2022-12-27T09:08:51.291Z,2.60
2022-12-27T09:11:24.390Z,2.88
2022-12-27T09:13:50.935Z,3.08
2022-12-27T09:16:20.745Z,3.42
2022-12-27T09:18:50.736Z,3.13
2022-12-27T09:21:18.417Z,3.00
2022-12-27T09:23:46.057Z,2.83
2022-12-27T09:26:15.291Z,3.25
2022-12-27T09:28:42.140Z,3.08
2022-12-27T09:31:10.207Z,3.17
2022-12-27T09:33:37.422Z,3.13
2022-12-27T09:36:10.373Z,3.42
2022-12-27T09:38:37.160Z,3.05
2022-12-27T09:44:26.463Z,3.03
2022-12-27T09:47:02.612Z,3.40
2022-12-27T09:49:41.354Z,3.10
2022-12-27T09:52:12.658Z,3.55
2022-12-27T09:54:57.866Z,4.05
2022-12-27T09:57:33.378Z,3.30
2022-12-27T10:00:05.230Z,4.22
2022-12-27T10:02:34.916Z,4.22
2022-12-27T10:07:55.219Z,4.25
2022-12-27T10:10:40.350Z,4.77
2022-12-27T10:13:28.225Z,4.75
2022-12-27T10:16:16.224Z,5.43
2022-12-27T10:18:47.402Z,5.05
2022-12-27T10:21:24.713Z,5.57
2022-12-27T10:24:34.135Z,5.73
2022-12-27T10:27:00.966Z,5.70
2022-12-27T10:29:28.835Z,4.65
2022-12-27T10:31:55.290Z,5.70
2022-12-27T10:34:24.624Z,5.57
2022-12-27T10:36:53.227Z,6.53
2022-12-27T10:39:30.973Z,7.10
2022-12-27T10:42:08.321Z,6.78
2022-12-27T10:44:34.844Z,6.70
2022-12-27T10:47:01.914Z,6.45
2022-12-27T10:49:31.491Z,6.80
2022-12-27T10:52:10.950Z,5.18
2022-12-27T10:54:51.161Z,5.35
2022-12-27T10:57:29.723Z,5.05
2022-12-27T11:00:17.654Z,5.05
2022-12-27T11:02:55.456Z,4.93
2022-12-27T11:05:30.442Z,4.25
2022-12-27T11:07:57.380Z,4.40
2022-12-27T11:10:26.595Z,4.10
2022-12-27T11:12:57.845Z,4.00
2022-12-27T11:15:25.544Z,3.13
2022-12-27T11:18:01.933Z,3.85
2022-12-27T11:20:37.741Z,3.53
2022-12-27T11:23:10.265Z,4.45
2022-12-27T11:25:57.992Z,3.50
2022-12-27T11:28:40.571Z,4.17
2022-12-27T11:31:10.109Z,3.85
2022-12-27T11:33:41.174Z,3.65
2022-12-27T11:36:11.006Z,3.03
2022-12-27T11:38:39.786Z,3.58
2022-12-27T11:41:08.291Z,3.73
2022-12-27T11:43:50.073Z,3.63
2022-12-27T11:46:30.909Z,3.80
2022-12-27T11:48:58.767Z,4.03
2022-12-27T11:51:50.960Z,3.50
2022-12-27T11:54:38.378Z,4.67
2022-12-27T11:57:13.840Z,3.60
2022-12-27T11:59:55.528Z,4.40
2022-12-27T12:03:09.687Z,4.00
2022-12-27T12:05:41.672Z,4.07
2022-12-27T12:08:21.158Z,4.00
2022-12-27T12:11:11.579Z,4.25
2022-12-27T12:14:00.110Z,3.60
2022-12-27T12:16:29.502Z,4.25
2022-12-27T12:19:07.759Z,3.90
2022-12-27T12:21:48.679Z,4.47
2022-12-27T12:24:33.934Z,3.72
2022-12-27T12:27:25.186Z,4.43
2022-12-27T12:30:04.922Z,3.67
2022-12-27T12:32:43.251Z,4.45
2022-12-27T12:35:40.320Z,3.40
2022-12-27T12:38:23.221Z,3.35
2022-12-27T12:40:55.370Z,4.07
2022-12-27T12:43:40.542Z,3.63
2022-12-27T12:46:13.014Z,3.40
2022-12-27T12:49:03.448Z,3.50
2022-12-27T12:51:57.904Z,2.78
2022-12-27T12:54:36.467Z,3.92
2022-12-27T12:57:23.205Z,4.15
2022-12-27T13:00:12.593Z,4.88
2022-12-27T13:02:57.600Z,4.47
2022-12-27T13:05:34.451Z,4.18
2022-12-27T13:08:13.167Z,4.45
2022-12-27T13:10:45.930Z,4.30
2022-12-27T13:13:19.025Z,4.40
2022-12-27T13:16:12.136Z,4.47
2022-12-27T13:18:51.760Z,3.95
2022-12-27T13:21:56.054Z,3.78
2022-12-27T13:24:36.790Z,3.58
2022-12-27T13:27:09.614Z,3.67
2022-12-27T13:30:06.452Z,4.00
2022-12-27T13:33:07.183Z,4.05
2022-12-27T13:35:40.380Z,3.72
2022-12-27T13:38:33.736Z,3.85
2022-12-27T13:41:30.070Z,3.33
2022-12-27T13:44:06.407Z,3.80
2022-12-27T13:46:38.198Z,3.65
2022-12-27T13:49:30.411Z,3.63
2022-12-27T13:52:12.157Z,3.45
2022-12-27T13:55:16.016Z,4.35
2022-12-27T13:58:13.820Z,3.07
2022-12-27T14:01:19.515Z,3.30
2022-12-27T14:04:06.166Z,3.67
2022-12-27T14:06:48.643Z,2.78
2022-12-27T14:09:39.395Z,2.92
2022-12-27T14:12:42.514Z,2.63
2022-12-27T14:15:18.107Z,2.80
2022-12-27T14:18:03.013Z,2.63
2022-12-27T14:20:56.535Z,3.50
2022-12-27T14:24:00.307Z,3.55
2022-12-27T14:26:57.856Z,3.37
2022-12-27T14:29:52.705Z,2.83
2022-12-27T14:32:19.089Z,3.15
2022-12-27T14:35:25.016Z,2.63
2022-12-27T14:38:11.839Z,4.20
2022-12-27T14:41:09.017Z,3.50
2022-12-27T14:43:53.763Z,3.17
2022-12-27T14:46:51.400Z,3.25
2022-12-27T14:49:49.206Z,2.65
2022-12-27T14:52:53.403Z,2.95
2022-12-27T14:55:44.742Z,2.83
2022-12-27T14:58:47.141Z,3.28
2022-12-27T15:01:46.365Z,3.08
2022-12-27T15:04:51.881Z,2.83
2022-12-27T15:07:55.813Z,3.53
2022-12-27T15:11:19.404Z,2.83
2022-12-27T15:14:10.329Z,3.08
2022-12-27T15:17:04.008Z,2.70
2022-12-27T15:20:08.639Z,2.80
2022-12-27T15:22:40.741Z,3.65
2022-12-27T15:25:27.121Z,3.00
2022-12-27T15:27:54.391Z,2.88
2022-12-27T15:30:33.021Z,3.05
2022-12-27T15:33:02.232Z,3.60
2022-12-27T15:35:53.629Z,3.13
2022-12-27T15:38:35.173Z,2.63
2022-12-27T15:41:05.012Z,3.28
2022-12-27T15:43:57.832Z,4.05
2022-12-27T15:46:40.886Z,3.10
2022-12-27T15:49:28.431Z,3.20
2022-12-27T15:52:40.143Z,2.73
2022-12-27T15:55:21.711Z,3.15
2022-12-27T15:58:06.722Z,3.20
2022-12-27T16:00:34.515Z,3.67
2022-12-27T16:03:37.290Z,3.40
2022-12-27T16:06:07.685Z,3.13
2022-12-27T16:08:39.656Z,3.00
2022-12-27T16:11:12.152Z,3.40
2022-12-27T16:13:42.850Z,3.10
2022-12-27T16:16:33.337Z,3.80
2022-12-27T16:19:22.173Z,3.43
2022-12-27T16:21:48.919Z,3.30
2022-12-27T16:24:22.317Z,3.00
2022-12-27T16:26:57.208Z,2.42
2022-12-27T16:29:28.258Z,2.67
2022-12-27T16:32:18.170Z,3.10
2022-12-27T16:34:46.764Z,2.85
2022-12-27T16:37:27.846Z,3.28
2022-12-27T16:40:00.267Z,2.40
2022-12-27T16:42:56.093Z,3.05
2022-12-27T16:45:37.688Z,2.97
2022-12-27T16:48:38.435Z,3.35
2022-12-27T16:51:17.259Z,3.00
2022-12-27T16:54:02.276Z,2.70
2022-12-27T16:56:31.895Z,2.92
2022-12-27T16:58:58.395Z,3.83
2022-12-27T17:01:35.747Z,2.83
2022-12-27T17:04:03.510Z,3.33
2022-12-27T17:06:34.456Z,2.22
2022-12-27T17:09:10.366Z,2.55
2022-12-27T17:11:42.949Z,2.67
2022-12-27T17:14:16.071Z,3.53
2022-12-27T17:16:56.242Z,16.70
2022-12-27T17:19:50.324Z,14.20
2022-12-27T17:22:17.907Z,3.25
2022-12-27T17:24:46.647Z,3.90
2022-12-27T17:27:33.284Z,2.95
2022-12-27T17:30:52.350Z,3.75
2022-12-27T17:33:24.762Z,3.17
2022-12-27T17:36:09.411Z,2.80
2022-12-27T17:39:06.325Z,2.53
2022-12-27T17:42:19.547Z,2.55
2022-12-27T17:45:12.522Z,2.90
2022-12-27T17:47:51.691Z,2.33
2022-12-27T17:50:24.119Z,3.30
2022-12-27T17:53:27.713Z,3.40
2022-12-27T17:56:37.170Z,2.88
2022-12-27T17:59:11.354Z,5.20
2022-12-27T18:01:50.219Z,3.00
2022-12-27T18:04:26.231Z,2.40
2022-12-27T18:06:57.630Z,2.90
2022-12-27T18:09:31.503Z,3.00
2022-12-27T18:11:58.015Z,3.60
2022-12-27T18:14:24.692Z,3.17
2022-12-27T18:16:51.309Z,3.20
2022-12-27T18:19:20.767Z,3.60
2022-12-27T18:22:02.017Z,3.15
2022-12-27T18:24:31.817Z,3.15
2022-12-27T18:27:06.698Z,2.97
2022-12-27T18:29:34.024Z,3.30
2022-12-27T18:32:09.032Z,2.13
2022-12-27T18:34:45.491Z,2.67
2022-12-27T18:37:21.744Z,3.08
2022-12-27T18:40:01.219Z,3.50
2022-12-27T18:42:37.622Z,2.50
2022-12-27T18:45:15.960Z,2.77
2022-12-27T18:47:47.386Z,2.70
2022-12-27T18:50:23.280Z,2.67
2022-12-27T18:53:03.594Z,3.50
2022-12-27T18:55:32.110Z,3.05
2022-12-27T18:58:07.854Z,2.40
2022-12-27T19:00:48.161Z,2.83
2022-12-27T19:03:17.639Z,2.80
2022-12-27T19:06:00.851Z,2.67
2022-12-27T19:08:34.098Z,2.38
2022-12-27T19:11:01.183Z,2.80
2022-12-27T19:13:40.308Z,2.78
2022-12-27T19:16:07.119Z,2.47
2022-12-27T19:18:37.011Z,2.70
2022-12-27T19:21:05.397Z,3.05
2022-12-27T19:23:39.788Z,2.90
2022-12-27T19:26:17.016Z,2.80
2022-12-27T19:28:45.254Z,2.47
2022-12-27T19:31:18.465Z,2.85
2022-12-27T19:33:58.591Z,2.83
2022-12-27T19:36:31.761Z,2.43
2022-12-27T19:38:59.199Z,2.72
2022-12-27T19:41:27.230Z,2.55
2022-12-27T19:43:54.427Z,2.92
2022-12-27T19:46:27.134Z,2.90
2022-12-27T19:51:43.643Z,2.65
2022-12-27T19:54:16.959Z,2.75
2022-12-27T19:56:43.545Z,3.05
2022-12-27T19:59:20.311Z,2.92
2022-12-27T20:01:47.320Z,3.50
2022-12-27T20:04:15.832Z,2.78
2022-12-27T20:06:43.717Z,2.95
2022-12-27T20:09:14.282Z,2.53
2022-12-27T20:11:41.244Z,2.85
2022-12-27T20:14:08.069Z,2.17
2022-12-27T20:16:34.532Z,2.20
2022-12-27T20:19:02.470Z,2.67
2022-12-27T20:21:29.335Z,2.53
2022-12-27T20:23:55.763Z,2.15
2022-12-27T20:26:25.088Z,2.30
2022-12-27T20:28:52.583Z,1.95
2022-12-27T20:31:21.076Z,1.90
2022-12-27T20:33:52.537Z,2.53
2022-12-27T20:36:19.076Z,2.40
2022-12-27T20:38:45.492Z,2.33
2022-12-27T20:41:14.657Z,2.53
2022-12-27T20:43:41.741Z,1.80
2022-12-27T20:46:17.421Z,2.05
2022-12-27T20:48:45.832Z,2.38
2022-12-27T20:51:17.648Z,2.33
2022-12-27T20:53:45.065Z,2.28
2022-12-27T20:56:12.958Z,2.22
2022-12-27T20:58:39.855Z,1.73
2022-12-27T21:01:15.265Z,2.35
2022-12-27T21:03:42.599Z,2.37
2022-12-27T21:06:09.875Z,2.13
2022-12-27T21:08:44.576Z,2.33
2022-12-27T21:11:18.848Z,1.85
2022-12-27T21:13:46.827Z,2.55
2022-12-27T21:16:15.870Z,2.60
2022-12-27T21:18:42.695Z,2.83
2022-12-27T21:21:12.386Z,2.17
2022-12-27T21:23:39.522Z,2.20
2022-12-27T21:26:09.055Z,2.40
2022-12-27T21:28:36.575Z,2.13
2022-12-27T21:31:04.157Z,2.35
2022-12-27T21:33:31.025Z,2.25
2022-12-27T21:36:03.960Z,2.17
2022-12-27T21:38:30.765Z,2.33
2022-12-27T21:41:11.034Z,2.60
2022-12-27T21:43:37.612Z,2.08
2022-12-27T21:46:06.985Z,2.05
2022-12-27T21:48:34.174Z,1.85
2022-12-27T21:51:05.493Z,1.88
2022-12-27T21:53:31.869Z,2.40
2022-12-27T21:55:58.639Z,1.88
2022-12-27T21:58:25.031Z,2.63
2022-12-27T22:00:56.070Z,2.25
2022-12-27T22:03:24.378Z,2.38
2022-12-27T22:05:50.871Z,1.90
2022-12-27T22:08:17.318Z,2.10
2022-12-27T22:10:45.343Z,2.60
2022-12-27T22:13:11.775Z,2.50
2022-12-27T22:15:38.192Z,2.88
2022-12-27T22:18:04.842Z,2.50
2022-12-27T22:20:31.226Z,2.40
2022-12-27T22:22:57.602Z,2.10
2022-12-27T22:25:24.153Z,2.60
2022-12-27T22:27:50.547Z,2.35
2022-12-27T22:30:17.099Z,2.03
2022-12-27T22:32:43.548Z,1.73
2022-12-27T22:35:09.927Z,2.28
2022-12-27T22:37:36.375Z,2.33
2022-12-27T22:40:03.141Z,2.63
2022-12-27T22:42:30.071Z,2.10
2022-12-27T22:44:56.469Z,2.47
2022-12-27T22:47:27.704Z,2.50
2022-12-27T22:49:54.715Z,2.85
2022-12-27T22:52:21.118Z,1.98
2022-12-27T22:55:05.281Z,2.87
2022-12-27T22:57:33.706Z,2.72
2022-12-27T23:00:00.103Z,1.98
2022-12-27T23:02:26.558Z,2.63
2022-12-27T23:04:53.066Z,2.80
2022-12-27T23:07:20.133Z,2.63
2022-12-27T23:09:46.640Z,2.95
2022-12-27T23:12:13.435Z,2.08
2022-12-27T23:14:40.632Z,3.88
2022-12-27T23:17:07.055Z,3.60
2022-12-27T23:19:33.439Z,2.70
2022-12-27T23:21:59.838Z,2.70
2022-12-27T23:24:26.334Z,2.55
2022-12-27T23:26:52.843Z,2.55
2022-12-27T23:29:19.258Z,2.72
2022-12-27T23:31:54.391Z,2.40
2022-12-27T23:34:27.768Z,2.55
2022-12-27T23:36:55.051Z,2.65
2022-12-27T23:39:21.463Z,2.80
2022-12-27T23:41:47.876Z,2.55
2022-12-27T23:44:14.292Z,2.60
2022-12-27T23:46:40.831Z,3.28
2022-12-27T23:49:07.285Z,3.05
2022-12-27T23:51:33.713Z,2.95
2022-12-27T23:54:00.138Z,2.63
2022-12-27T23:56:32.072Z,2.43
2022-12-27T23:59:00.704Z,2.70
